sensor_id;sensor_type;location;lat;lon;timestamp;P1;durP1;ratioP1;P2;durP2;ratioP2
3849;SDS011;1940;51.052;13.678;2022-08-01T00:00:24;3.83;;;3.37;;
3849;SDS011;1940;51.052;13.678;2022-08-01T00:02:50;4.60;;;3.53;;
3849;SDS011;1940;51.052;13.678;2022-08-01T00:05:16;4.17;;;3.27;;
3849;SDS011;1940;51.052;13.678;2022-08-01T00:07:42;5.00;;;3.10;;
3849;SDS011;1940;51.052;13.678;2022-08-01T00:10:08;7.33;;;3.50;;
3849;SDS011;1940;51.052;13.678;2022-08-01T00:12:36;4.33;;;3.30;;
3849;SDS011;1940;51.052;13.678;2022-08-01T00:15:02;3.80;;;3.23;;
3849;SDS011;1940;51.052;13.678;2022-08-01T00:17:30;4.43;;;2.90;;
3849;SDS011;1940;51.052;13.678;2022-08-01T00:19:56;4.80;;;3.20;;
3849;SDS011;1940;51.052;13.678;2022-08-01T00:22:22;3.73;;;3.20;;
3849;SDS011;1940;51.052;13.678;2022-08-01T00:24:47;3.17;;;2.77;;
3849;SDS011;1940;51.052;13.678;2022-08-01T00:27:13;3.33;;;3.00;;
3849;SDS011;1940;51.052;13.678;2022-08-01T00:29:38;4.70;;;3.30;;
3849;SDS011;1940;51.052;13.678;2022-08-01T00:32:04;4.10;;;3.10;;
3849;SDS011;1940;51.052;13.678;2022-08-01T00:34:30;5.63;;;3.60;;
3849;SDS011;1940;51.052;13.678;2022-08-01T00:36:55;4.90;;;3.50;;
3849;SDS011;1940;51.052;13.678;2022-08-01T00:39:21;5.37;;;3.23;;
3849;SDS011;1940;51.052;13.678;2022-08-01T00:41:47;5.17;;;3.40;;
3849;SDS011;1940;51.052;13.678;2022-08-01T00:44:12;3.70;;;3.20;;
3849;SDS011;1940;51.052;13.678;2022-08-01T00:46:38;8.87;;;3.50;;
3849;SDS011;1940;51.052;13.678;2022-08-01T00:49:03;4.43;;;3.97;;
3849;SDS011;1940;51.052;13.678;2022-08-01T00:51:29;3.70;;;3.13;;
3849;SDS011;1940;51.052;13.678;2022-08-01T00:53:55;3.93;;;3.30;;
3849;SDS011;1940;51.052;13.678;2022-08-01T00:56:22;4.90;;;3.57;;
3849;SDS011;1940;51.052;13.678;2022-08-01T00:58:49;4.80;;;3.20;;
3849;SDS011;1940;51.052;13.678;2022-08-01T01:01:16;3.90;;;3.17;;
3849;SDS011;1940;51.052;13.678;2022-08-01T01:03:41;4.70;;;3.73;;
3849;SDS011;1940;51.052;13.678;2022-08-01T01:06:30;5.03;;;3.60;;
3849;SDS011;1940;51.052;13.678;2022-08-01T01:11:29;6.47;;;3.70;;
3849;SDS011;1940;51.052;13.678;2022-08-01T01:14:05;3.97;;;3.30;;
3849;SDS011;1940;51.052;13.678;2022-08-01T01:16:37;5.10;;;3.33;;
3849;SDS011;1940;51.052;13.678;2022-08-01T01:19:05;3.70;;;3.13;;
3849;SDS011;1940;51.052;13.678;2022-08-01T01:24:34;4.17;;;3.63;;
3849;SDS011;1940;51.052;13.678;2022-08-01T01:27:27;4.07;;;3.30;;
3849;SDS011;1940;51.052;13.678;2022-08-01T01:30:16;6.23;;;3.50;;
3849;SDS011;1940;51.052;13.678;2022-08-01T01:32:43;4.60;;;3.30;;
3849;SDS011;1940;51.052;13.678;2022-08-01T01:38:42;5.67;;;3.70;;
3849;SDS011;1940;51.052;13.678;2022-08-01T01:41:11;4.00;;;3.60;;
3849;SDS011;1940;51.052;13.678;2022-08-01T01:43:39;7.37;;;3.60;;
3849;SDS011;1940;51.052;13.678;2022-08-01T01:46:05;6.90;;;3.77;;
3849;SDS011;1940;51.052;13.678;2022-08-01T01:48:33;4.03;;;3.57;;
3849;SDS011;1940;51.052;13.678;2022-08-01T01:51:00;3.97;;;3.57;;
3849;SDS011;1940;51.052;13.678;2022-08-01T01:53:27;4.43;;;3.93;;
3849;SDS011;1940;51.052;13.678;2022-08-01T01:55:56;13.57;;;3.87;;
3849;SDS011;1940;51.052;13.678;2022-08-01T01:58:23;3.80;;;3.40;;
3849;SDS011;1940;51.052;13.678;2022-08-01T02:00:51;4.70;;;4.00;;
3849;SDS011;1940;51.052;13.678;2022-08-01T02:03:20;8.40;;;3.33;;
3849;SDS011;1940;51.052;13.678;2022-08-01T02:05:47;4.07;;;3.67;;
3849;SDS011;1940;51.052;13.678;2022-08-01T02:08:14;4.30;;;3.77;;
3849;SDS011;1940;51.052;13.678;2022-08-01T02:10:41;4.70;;;3.50;;
3849;SDS011;1940;51.052;13.678;2022-08-01T02:13:32;3.77;;;3.37;;
3849;SDS011;1940;51.052;13.678;2022-08-01T02:16:01;3.53;;;3.17;;
3849;SDS011;1940;51.052;13.678;2022-08-01T02:18:28;3.83;;;3.53;;
3849;SDS011;1940;51.052;13.678;2022-08-01T02:20:55;5.80;;;3.90;;
3849;SDS011;1940;51.052;13.678;2022-08-01T02:23:23;5.00;;;3.97;;
3849;SDS011;1940;51.052;13.678;2022-08-01T02:25:52;9.23;;;3.90;;
3849;SDS011;1940;51.052;13.678;2022-08-01T02:28:21;3.50;;;3.03;;
3849;SDS011;1940;51.052;13.678;2022-08-01T02:30:56;8.27;;;4.37;;
3849;SDS011;1940;51.052;13.678;2022-08-01T02:33:40;4.20;;;3.80;;
3849;SDS011;1940;51.052;13.678;2022-08-01T02:36:08;3.47;;;3.17;;
3849;SDS011;1940;51.052;13.678;2022-08-01T02:38:36;4.00;;;3.60;;
3849;SDS011;1940;51.052;13.678;2022-08-01T02:41:09;4.63;;;3.90;;
3849;SDS011;1940;51.052;13.678;2022-08-01T02:43:40;4.70;;;3.50;;
3849;SDS011;1940;51.052;13.678;2022-08-01T02:46:12;3.50;;;3.20;;
3849;SDS011;1940;51.052;13.678;2022-08-01T02:48:44;9.23;;;3.93;;
3849;SDS011;1940;51.052;13.678;2022-08-01T02:51:12;6.13;;;3.80;;
3849;SDS011;1940;51.052;13.678;2022-08-01T02:53:40;6.00;;;3.83;;
3849;SDS011;1940;51.052;13.678;2022-08-01T02:56:08;4.17;;;3.60;;
3849;SDS011;1940;51.052;13.678;2022-08-01T02:58:36;4.23;;;3.77;;
3849;SDS011;1940;51.052;13.678;2022-08-01T03:01:04;4.10;;;3.53;;
3849;SDS011;1940;51.052;13.678;2022-08-01T03:03:31;4.70;;;4.00;;
3849;SDS011;1940;51.052;13.678;2022-08-01T03:05:58;5.80;;;4.20;;
3849;SDS011;1940;51.052;13.678;2022-08-01T03:08:25;6.10;;;4.00;;
3849;SDS011;1940;51.052;13.678;2022-08-01T03:10:54;4.10;;;3.70;;
3849;SDS011;1940;51.052;13.678;2022-08-01T03:13:21;5.17;;;3.87;;
3849;SDS011;1940;51.052;13.678;2022-08-01T03:15:48;4.67;;;3.80;;
3849;SDS011;1940;51.052;13.678;2022-08-01T03:18:14;4.70;;;3.77;;
3849;SDS011;1940;51.052;13.678;2022-08-01T03:20:42;5.30;;;3.47;;
3849;SDS011;1940;51.052;13.678;2022-08-01T03:23:09;4.87;;;3.90;;
3849;SDS011;1940;51.052;13.678;2022-08-01T03:25:38;5.10;;;3.47;;
3849;SDS011;1940;51.052;13.678;2022-08-01T03:28:06;4.40;;;3.57;;
3849;SDS011;1940;51.052;13.678;2022-08-01T03:30:33;4.00;;;3.60;;
3849;SDS011;1940;51.052;13.678;2022-08-01T03:33:02;6.47;;;4.10;;
3849;SDS011;1940;51.052;13.678;2022-08-01T03:35:38;4.40;;;3.70;;
3849;SDS011;1940;51.052;13.678;2022-08-01T03:38:08;4.60;;;3.87;;
3849;SDS011;1940;51.052;13.678;2022-08-01T03:40:40;3.90;;;3.37;;
3849;SDS011;1940;51.052;13.678;2022-08-01T03:43:15;7.10;;;3.77;;
3849;SDS011;1940;51.052;13.678;2022-08-01T03:46:06;5.20;;;3.50;;
3849;SDS011;1940;51.052;13.678;2022-08-01T03:48:39;5.87;;;3.90;;
3849;SDS011;1940;51.052;13.678;2022-08-01T03:51:07;6.10;;;4.00;;
3849;SDS011;1940;51.052;13.678;2022-08-01T03:53:35;7.37;;;3.50;;
3849;SDS011;1940;51.052;13.678;2022-08-01T03:56:03;4.07;;;3.20;;
3849;SDS011;1940;51.052;13.678;2022-08-01T03:58:33;3.73;;;3.30;;
3849;SDS011;1940;51.052;13.678;2022-08-01T04:01:00;3.80;;;3.40;;
3849;SDS011;1940;51.052;13.678;2022-08-01T04:03:26;3.13;;;2.83;;
3849;SDS011;1940;51.052;13.678;2022-08-01T04:05:52;4.57;;;3.50;;
3849;SDS011;1940;51.052;13.678;2022-08-01T04:08:18;6.33;;;3.53;;
3849;SDS011;1940;51.052;13.678;2022-08-01T04:10:43;6.03;;;3.50;;
3849;SDS011;1940;51.052;13.678;2022-08-01T04:13:09;5.10;;;3.43;;
3849;SDS011;1940;51.052;13.678;2022-08-01T04:15:35;4.20;;;3.70;;
3849;SDS011;1940;51.052;13.678;2022-08-01T04:18:00;5.37;;;3.67;;
3849;SDS011;1940;51.052;13.678;2022-08-01T04:20:26;3.93;;;3.50;;
3849;SDS011;1940;51.052;13.678;2022-08-01T04:22:52;5.50;;;3.80;;
3849;SDS011;1940;51.052;13.678;2022-08-01T04:25:33;4.17;;;3.40;;
3849;SDS011;1940;51.052;13.678;2022-08-01T04:28:06;4.67;;;3.40;;
3849;SDS011;1940;51.052;13.678;2022-08-01T04:30:41;6.60;;;4.20;;
3849;SDS011;1940;51.052;13.678;2022-08-01T04:33:09;4.63;;;3.73;;
3849;SDS011;1940;51.052;13.678;2022-08-01T04:35:41;6.90;;;4.40;;
3849;SDS011;1940;51.052;13.678;2022-08-01T04:38:10;5.23;;;3.90;;
3849;SDS011;1940;51.052;13.678;2022-08-01T04:40:39;5.27;;;3.80;;
3849;SDS011;1940;51.052;13.678;2022-08-01T04:43:06;5.47;;;4.30;;
3849;SDS011;1940;51.052;13.678;2022-08-01T04:45:33;6.43;;;3.83;;
3849;SDS011;1940;51.052;13.678;2022-08-01T04:48:00;5.30;;;3.93;;
3849;SDS011;1940;51.052;13.678;2022-08-01T04:50:26;6.10;;;4.53;;
3849;SDS011;1940;51.052;13.678;2022-08-01T04:52:52;5.83;;;4.20;;
3849;SDS011;1940;51.052;13.678;2022-08-01T04:55:18;10.40;;;4.90;;
3849;SDS011;1940;51.052;13.678;2022-08-01T04:57:44;4.93;;;4.27;;
3849;SDS011;1940;51.052;13.678;2022-08-01T05:00:12;6.93;;;4.17;;
3849;SDS011;1940;51.052;13.678;2022-08-01T05:02:38;7.07;;;4.57;;
3849;SDS011;1940;51.052;13.678;2022-08-01T05:05:03;7.87;;;4.30;;
3849;SDS011;1940;51.052;13.678;2022-08-01T05:07:31;5.10;;;3.93;;
3849;SDS011;1940;51.052;13.678;2022-08-01T05:09:57;4.83;;;4.33;;
3849;SDS011;1940;51.052;13.678;2022-08-01T05:12:23;4.13;;;3.67;;
3849;SDS011;1940;51.052;13.678;2022-08-01T05:14:49;4.93;;;4.07;;
3849;SDS011;1940;51.052;13.678;2022-08-01T05:17:14;7.10;;;3.97;;
3849;SDS011;1940;51.052;13.678;2022-08-01T05:19:41;4.90;;;3.43;;
3849;SDS011;1940;51.052;13.678;2022-08-01T05:22:08;4.40;;;3.80;;
3849;SDS011;1940;51.052;13.678;2022-08-01T05:24:35;5.10;;;4.07;;
3849;SDS011;1940;51.052;13.678;2022-08-01T05:27:03;4.07;;;3.60;;
3849;SDS011;1940;51.052;13.678;2022-08-01T05:29:30;28.97;;;16.23;;
3849;SDS011;1940;51.052;13.678;2022-08-01T05:31:56;8.33;;;6.20;;
3849;SDS011;1940;51.052;13.678;2022-08-01T05:34:22;4.70;;;3.50;;
3849;SDS011;1940;51.052;13.678;2022-08-01T05:36:48;3.93;;;3.00;;
3849;SDS011;1940;51.052;13.678;2022-08-01T05:39:14;5.00;;;3.53;;
3849;SDS011;1940;51.052;13.678;2022-08-01T05:41:40;6.47;;;3.97;;
3849;SDS011;1940;51.052;13.678;2022-08-01T05:44:06;5.53;;;3.20;;
3849;SDS011;1940;51.052;13.678;2022-08-01T05:46:33;3.27;;;2.97;;
3849;SDS011;1940;51.052;13.678;2022-08-01T05:48:59;4.80;;;2.80;;
3849;SDS011;1940;51.052;13.678;2022-08-01T05:51:25;3.57;;;2.90;;
3849;SDS011;1940;51.052;13.678;2022-08-01T05:53:51;4.73;;;3.00;;
3849;SDS011;1940;51.052;13.678;2022-08-01T05:56:18;3.73;;;3.23;;
3849;SDS011;1940;51.052;13.678;2022-08-01T05:58:43;3.90;;;2.90;;
3849;SDS011;1940;51.052;13.678;2022-08-01T06:01:09;3.97;;;3.10;;
3849;SDS011;1940;51.052;13.678;2022-08-01T06:03:36;4.10;;;3.53;;
3849;SDS011;1940;51.052;13.678;2022-08-01T06:06:02;3.50;;;2.63;;
3849;SDS011;1940;51.052;13.678;2022-08-01T06:08:28;3.87;;;3.17;;
3849;SDS011;1940;51.052;13.678;2022-08-01T06:10:54;3.40;;;3.10;;
3849;SDS011;1940;51.052;13.678;2022-08-01T06:13:20;5.43;;;3.60;;
3849;SDS011;1940;51.052;13.678;2022-08-01T06:15:46;3.50;;;3.20;;
3849;SDS011;1940;51.052;13.678;2022-08-01T06:18:12;4.07;;;3.00;;
3849;SDS011;1940;51.052;13.678;2022-08-01T06:20:38;3.40;;;3.10;;
3849;SDS011;1940;51.052;13.678;2022-08-01T06:23:04;3.63;;;2.93;;
3849;SDS011;1940;51.052;13.678;2022-08-01T06:25:30;4.37;;;2.70;;
3849;SDS011;1940;51.052;13.678;2022-08-01T06:27:56;4.60;;;3.20;;
3849;SDS011;1940;51.052;13.678;2022-08-01T06:30:22;8.33;;;3.10;;
3849;SDS011;1940;51.052;13.678;2022-08-01T06:32:48;4.67;;;3.50;;
3849;SDS011;1940;51.052;13.678;2022-08-01T06:35:14;4.27;;;3.83;;
3849;SDS011;1940;51.052;13.678;2022-08-01T06:37:40;10.40;;;3.87;;
3849;SDS011;1940;51.052;13.678;2022-08-01T06:40:07;5.00;;;3.50;;
3849;SDS011;1940;51.052;13.678;2022-08-01T06:42:34;4.13;;;3.73;;
3849;SDS011;1940;51.052;13.678;2022-08-01T06:45:04;13.70;;;3.70;;
3849;SDS011;1940;51.052;13.678;2022-08-01T06:47:31;6.07;;;4.17;;
3849;SDS011;1940;51.052;13.678;2022-08-01T06:49:57;7.03;;;4.30;;
3849;SDS011;1940;51.052;13.678;2022-08-01T06:52:23;10.23;;;4.43;;
3849;SDS011;1940;51.052;13.678;2022-08-01T06:54:49;4.83;;;3.93;;
3849;SDS011;1940;51.052;13.678;2022-08-01T06:57:15;6.00;;;4.10;;
3849;SDS011;1940;51.052;13.678;2022-08-01T06:59:41;5.37;;;4.50;;
3849;SDS011;1940;51.052;13.678;2022-08-01T07:02:06;6.17;;;4.40;;
3849;SDS011;1940;51.052;13.678;2022-08-01T07:04:32;8.63;;;4.40;;
3849;SDS011;1940;51.052;13.678;2022-08-01T07:06:59;7.57;;;4.60;;
3849;SDS011;1940;51.052;13.678;2022-08-01T07:09:24;6.10;;;5.00;;
3849;SDS011;1940;51.052;13.678;2022-08-01T07:11:50;5.23;;;4.30;;
3849;SDS011;1940;51.052;13.678;2022-08-01T07:14:17;6.97;;;5.50;;
3849;SDS011;1940;51.052;13.678;2022-08-01T07:16:43;6.67;;;5.23;;
3849;SDS011;1940;51.052;13.678;2022-08-01T07:19:09;6.20;;;5.03;;
3849;SDS011;1940;51.052;13.678;2022-08-01T07:21:35;7.10;;;4.90;;
3849;SDS011;1940;51.052;13.678;2022-08-01T07:24:00;6.70;;;5.07;;
3849;SDS011;1940;51.052;13.678;2022-08-01T07:26:26;8.30;;;4.70;;
3849;SDS011;1940;51.052;13.678;2022-08-01T07:28:52;8.37;;;4.77;;
3849;SDS011;1940;51.052;13.678;2022-08-01T07:31:18;6.80;;;5.20;;
3849;SDS011;1940;51.052;13.678;2022-08-01T07:33:44;10.50;;;3.73;;
3849;SDS011;1940;51.052;13.678;2022-08-01T07:36:10;5.27;;;3.83;;
3849;SDS011;1940;51.052;13.678;2022-08-01T07:38:36;4.23;;;3.37;;
3849;SDS011;1940;51.052;13.678;2022-08-01T07:41:01;6.20;;;3.87;;
3849;SDS011;1940;51.052;13.678;2022-08-01T07:43:27;6.00;;;3.80;;
3849;SDS011;1940;51.052;13.678;2022-08-01T07:45:54;4.07;;;3.43;;
3849;SDS011;1940;51.052;13.678;2022-08-01T07:48:19;3.70;;;3.30;;
3849;SDS011;1940;51.052;13.678;2022-08-01T07:50:48;3.67;;;3.27;;
3849;SDS011;1940;51.052;13.678;2022-08-01T07:53:17;3.70;;;3.10;;
3849;SDS011;1940;51.052;13.678;2022-08-01T07:55:43;4.33;;;3.60;;
3849;SDS011;1940;51.052;13.678;2022-08-01T07:58:08;4.40;;;3.27;;
3849;SDS011;1940;51.052;13.678;2022-08-01T08:00:34;4.37;;;3.00;;
3849;SDS011;1940;51.052;13.678;2022-08-01T08:03:00;5.40;;;2.70;;
3849;SDS011;1940;51.052;13.678;2022-08-01T08:05:25;3.43;;;2.77;;
3849;SDS011;1940;51.052;13.678;2022-08-01T08:07:52;3.23;;;2.90;;
3849;SDS011;1940;51.052;13.678;2022-08-01T08:10:18;6.03;;;3.23;;
3849;SDS011;1940;51.052;13.678;2022-08-01T08:12:43;4.10;;;2.80;;
3849;SDS011;1940;51.052;13.678;2022-08-01T08:15:11;3.53;;;2.20;;
3849;SDS011;1940;51.052;13.678;2022-08-01T08:17:37;2.60;;;2.40;;
3849;SDS011;1940;51.052;13.678;2022-08-01T08:20:05;4.77;;;2.60;;
3849;SDS011;1940;51.052;13.678;2022-08-01T08:22:32;3.23;;;2.50;;
3849;SDS011;1940;51.052;13.678;2022-08-01T08:24:58;4.27;;;2.53;;
3849;SDS011;1940;51.052;13.678;2022-08-01T08:27:24;2.77;;;2.43;;
3849;SDS011;1940;51.052;13.678;2022-08-01T08:29:50;3.80;;;2.33;;
3849;SDS011;1940;51.052;13.678;2022-08-01T08:32:15;2.20;;;2.00;;
3849;SDS011;1940;51.052;13.678;2022-08-01T08:34:41;2.87;;;2.53;;
3849;SDS011;1940;51.052;13.678;2022-08-01T08:37:07;3.10;;;2.47;;
3849;SDS011;1940;51.052;13.678;2022-08-01T08:39:33;2.40;;;2.20;;
3849;SDS011;1940;51.052;13.678;2022-08-01T08:41:59;2.20;;;2.00;;
3849;SDS011;1940;51.052;13.678;2022-08-01T08:44:26;3.70;;;1.70;;
3849;SDS011;1940;51.052;13.678;2022-08-01T08:46:52;2.10;;;1.77;;
3849;SDS011;1940;51.052;13.678;2022-08-01T08:49:25;3.20;;;1.90;;
3849;SDS011;1940;51.052;13.678;2022-08-01T08:51:53;3.70;;;1.80;;
3849;SDS011;1940;51.052;13.678;2022-08-01T08:54:22;1.90;;;1.70;;
3849;SDS011;1940;51.052;13.678;2022-08-01T08:56:50;2.27;;;1.80;;
3849;SDS011;1940;51.052;13.678;2022-08-01T08:59:17;3.13;;;1.80;;
3849;SDS011;1940;51.052;13.678;2022-08-01T09:01:43;1.60;;;1.50;;
3849;SDS011;1940;51.052;13.678;2022-08-01T09:04:09;2.00;;;1.80;;
3849;SDS011;1940;51.052;13.678;2022-08-01T09:06:35;2.20;;;2.00;;
3849;SDS011;1940;51.052;13.678;2022-08-01T09:09:01;2.00;;;1.87;;
3849;SDS011;1940;51.052;13.678;2022-08-01T09:11:27;6.23;;;2.30;;
3849;SDS011;1940;51.052;13.678;2022-08-01T09:14:36;2.83;;;2.20;;
3849;SDS011;1940;51.052;13.678;2022-08-01T09:17:01;2.47;;;2.23;;
3849;SDS011;1940;51.052;13.678;2022-08-01T09:19:38;3.33;;;2.60;;
3849;SDS011;1940;51.052;13.678;2022-08-01T09:22:07;3.90;;;2.50;;
3849;SDS011;1940;51.052;13.678;2022-08-01T09:24:34;2.53;;;2.33;;
3849;SDS011;1940;51.052;13.678;2022-08-01T09:27:01;2.20;;;2.00;;
3849;SDS011;1940;51.052;13.678;2022-08-01T09:29:40;2.10;;;2.00;;
3849;SDS011;1940;51.052;13.678;2022-08-01T09:32:06;3.10;;;1.80;;
3849;SDS011;1940;51.052;13.678;2022-08-01T09:34:31;2.00;;;1.90;;
3849;SDS011;1940;51.052;13.678;2022-08-01T09:36:58;2.00;;;1.90;;
3849;SDS011;1940;51.052;13.678;2022-08-01T09:39:26;1.60;;;1.50;;
3849;SDS011;1940;51.052;13.678;2022-08-01T09:41:54;2.90;;;1.60;;
3849;SDS011;1940;51.052;13.678;2022-08-01T09:44:43;1.83;;;1.37;;
3849;SDS011;1940;51.052;13.678;2022-08-01T09:47:07;1.40;;;1.30;;
3849;SDS011;1940;51.052;13.678;2022-08-01T09:49:34;1.70;;;1.60;;
3849;SDS011;1940;51.052;13.678;2022-08-01T09:52:11;1.57;;;1.47;;
3849;SDS011;1940;51.052;13.678;2022-08-01T09:54:53;1.30;;;1.20;;
3849;SDS011;1940;51.052;13.678;2022-08-01T09:57:27;2.13;;;1.33;;
3849;SDS011;1940;51.052;13.678;2022-08-01T09:59:55;1.67;;;1.57;;
3849;SDS011;1940;51.052;13.678;2022-08-01T10:02:29;1.50;;;1.40;;
3849;SDS011;1940;51.052;13.678;2022-08-01T10:05:00;1.63;;;1.53;;
3849;SDS011;1940;51.052;13.678;2022-08-01T10:07:27;1.70;;;1.60;;
3849;SDS011;1940;51.052;13.678;2022-08-01T10:09:53;1.73;;;1.63;;
3849;SDS011;1940;51.052;13.678;2022-08-01T10:12:20;1.70;;;1.60;;
3849;SDS011;1940;51.052;13.678;2022-08-01T10:14:49;1.70;;;1.60;;
3849;SDS011;1940;51.052;13.678;2022-08-01T10:17:17;1.63;;;1.53;;
3849;SDS011;1940;51.052;13.678;2022-08-01T10:19:45;1.60;;;1.50;;
3849;SDS011;1940;51.052;13.678;2022-08-01T10:22:12;1.43;;;1.23;;
3849;SDS011;1940;51.052;13.678;2022-08-01T10:24:41;1.10;;;1.10;;
3849;SDS011;1940;51.052;13.678;2022-08-01T10:27:13;1.20;;;1.10;;
3849;SDS011;1940;51.052;13.678;2022-08-01T10:29:57;1.30;;;1.20;;
3849;SDS011;1940;51.052;13.678;2022-08-01T10:32:32;1.40;;;1.30;;
3849;SDS011;1940;51.052;13.678;2022-08-01T10:35:00;1.50;;;1.40;;
3849;SDS011;1940;51.052;13.678;2022-08-01T10:37:26;1.60;;;1.50;;
3849;SDS011;1940;51.052;13.678;2022-08-01T10:39:53;5.20;;;1.70;;
3849;SDS011;1940;51.052;13.678;2022-08-01T10:45:12;1.47;;;1.37;;
3849;SDS011;1940;51.052;13.678;2022-08-01T10:47:53;1.50;;;1.40;;
3849;SDS011;1940;51.052;13.678;2022-08-01T10:50:38;1.33;;;1.23;;
3849;SDS011;1940;51.052;13.678;2022-08-01T10:53:11;1.40;;;1.30;;
3849;SDS011;1940;51.052;13.678;2022-08-01T10:58:13;1.10;;;1.00;;
3849;SDS011;1940;51.052;13.678;2022-08-01T11:00:44;1.00;;;0.80;;
3849;SDS011;1940;51.052;13.678;2022-08-01T11:03:10;1.03;;;0.80;;
3849;SDS011;1940;51.052;13.678;2022-08-01T11:05:35;0.80;;;0.80;;
3849;SDS011;1940;51.052;13.678;2022-08-01T11:08:10;1.00;;;0.90;;
3849;SDS011;1940;51.052;13.678;2022-08-01T11:10:47;1.10;;;0.90;;
3849;SDS011;1940;51.052;13.678;2022-08-01T11:13:12;1.47;;;0.80;;
3849;SDS011;1940;51.052;13.678;2022-08-01T11:15:39;1.47;;;0.70;;
3849;SDS011;1940;51.052;13.678;2022-08-01T11:20:56;1.10;;;0.90;;
3849;SDS011;1940;51.052;13.678;2022-08-01T11:23:24;1.10;;;0.83;;
3849;SDS011;1940;51.052;13.678;2022-08-01T11:28:25;1.00;;;0.90;;
3849;SDS011;1940;51.052;13.678;2022-08-01T11:30:52;1.80;;;0.90;;
3849;SDS011;1940;51.052;13.678;2022-08-01T11:38:38;3.77;;;0.90;;
3849;SDS011;1940;51.052;13.678;2022-08-01T11:54:34;1.53;;;1.43;;
3849;SDS011;1940;51.052;13.678;2022-08-01T11:57:04;2.73;;;1.90;;
3849;SDS011;1940;51.052;13.678;2022-08-01T12:00:05;2.13;;;1.50;;
3849;SDS011;1940;51.052;13.678;2022-08-01T12:02:28;2.83;;;1.50;;
3849;SDS011;1940;51.052;13.678;2022-08-01T12:05:03;1.67;;;1.50;;
3849;SDS011;1940;51.052;13.678;2022-08-01T12:07:31;3.07;;;1.23;;
3849;SDS011;1940;51.052;13.678;2022-08-01T12:10:12;2.00;;;1.80;;
3849;SDS011;1940;51.052;13.678;2022-08-01T12:12:46;4.23;;;1.80;;
3849;SDS011;1940;51.052;13.678;2022-08-01T12:15:13;2.00;;;1.53;;
3849;SDS011;1940;51.052;13.678;2022-08-01T12:17:43;1.87;;;1.60;;
3849;SDS011;1940;51.052;13.678;2022-08-01T12:20:12;4.53;;;1.53;;
3849;SDS011;1940;51.052;13.678;2022-08-01T12:22:44;1.40;;;1.30;;
3849;SDS011;1940;51.052;13.678;2022-08-01T12:25:13;1.73;;;1.63;;
3849;SDS011;1940;51.052;13.678;2022-08-01T12:27:41;2.27;;;1.40;;
3849;SDS011;1940;51.052;13.678;2022-08-01T12:30:11;1.93;;;1.40;;
3849;SDS011;1940;51.052;13.678;2022-08-01T12:32:40;2.90;;;1.30;;
3849;SDS011;1940;51.052;13.678;2022-08-01T12:37:41;1.50;;;1.40;;
3849;SDS011;1940;51.052;13.678;2022-08-01T12:40:12;8.70;;;1.47;;
3849;SDS011;1940;51.052;13.678;2022-08-01T12:42:40;5.70;;;1.20;;
3849;SDS011;1940;51.052;13.678;2022-08-01T12:45:08;3.17;;;1.17;;
3849;SDS011;1940;51.052;13.678;2022-08-01T12:47:35;1.20;;;1.10;;
3849;SDS011;1940;51.052;13.678;2022-08-01T12:50:04;1.40;;;1.30;;
3849;SDS011;1940;51.052;13.678;2022-08-01T12:52:36;1.40;;;1.30;;
3849;SDS011;1940;51.052;13.678;2022-08-01T12:57:37;1.93;;;1.30;;
3849;SDS011;1940;51.052;13.678;2022-08-01T13:00:14;2.37;;;2.03;;
3849;SDS011;1940;51.052;13.678;2022-08-01T13:02:50;1.30;;;1.20;;
3849;SDS011;1940;51.052;13.678;2022-08-01T13:05:25;2.13;;;1.30;;
3849;SDS011;1940;51.052;13.678;2022-08-01T13:07:52;1.40;;;1.30;;
3849;SDS011;1940;51.052;13.678;2022-08-01T13:10:24;1.63;;;1.10;;
3849;SDS011;1940;51.052;13.678;2022-08-01T13:12:53;1.13;;;1.03;;
3849;SDS011;1940;51.052;13.678;2022-08-01T13:15:21;3.00;;;1.20;;
3849;SDS011;1940;51.052;13.678;2022-08-01T13:17:53;1.20;;;1.10;;
3849;SDS011;1940;51.052;13.678;2022-08-01T13:20:23;1.67;;;0.90;;
3849;SDS011;1940;51.052;13.678;2022-08-01T13:22:53;2.93;;;1.73;;
3849;SDS011;1940;51.052;13.678;2022-08-01T13:25:19;2.13;;;1.93;;
3849;SDS011;1940;51.052;13.678;2022-08-01T13:27:45;0.80;;;0.80;;
3849;SDS011;1940;51.052;13.678;2022-08-01T13:30:14;1.43;;;1.33;;
3849;SDS011;1940;51.052;13.678;2022-08-01T13:32:44;5.00;;;1.93;;
3849;SDS011;1940;51.052;13.678;2022-08-01T13:35:25;0.80;;;0.80;;
3849;SDS011;1940;51.052;13.678;2022-08-01T13:37:51;2.90;;;1.00;;
3849;SDS011;1940;51.052;13.678;2022-08-01T13:40:25;1.70;;;1.03;;
3849;SDS011;1940;51.052;13.678;2022-08-01T13:42:55;1.20;;;1.10;;
3849;SDS011;1940;51.052;13.678;2022-08-01T13:45:21;1.30;;;1.20;;
3849;SDS011;1940;51.052;13.678;2022-08-01T13:47:47;1.27;;;1.10;;
3849;SDS011;1940;51.052;13.678;2022-08-01T13:50:13;1.33;;;1.00;;
3849;SDS011;1940;51.052;13.678;2022-08-01T13:52:39;0.93;;;0.90;;
3849;SDS011;1940;51.052;13.678;2022-08-01T13:55:05;1.30;;;1.20;;
3849;SDS011;1940;51.052;13.678;2022-08-01T13:57:31;1.30;;;1.20;;
3849;SDS011;1940;51.052;13.678;2022-08-01T13:59:57;1.20;;;1.10;;
3849;SDS011;1940;51.052;13.678;2022-08-01T14:02:25;1.20;;;1.10;;
3849;SDS011;1940;51.052;13.678;2022-08-01T14:04:51;1.87;;;1.37;;
3849;SDS011;1940;51.052;13.678;2022-08-01T14:07:19;1.33;;;1.23;;
3849;SDS011;1940;51.052;13.678;2022-08-01T14:09:45;1.87;;;1.17;;
3849;SDS011;1940;51.052;13.678;2022-08-01T14:12:11;1.30;;;1.20;;
3849;SDS011;1940;51.052;13.678;2022-08-01T14:14:39;1.40;;;1.30;;
3849;SDS011;1940;51.052;13.678;2022-08-01T14:17:05;2.33;;;1.80;;
3849;SDS011;1940;51.052;13.678;2022-08-01T14:19:31;2.40;;;2.00;;
3849;SDS011;1940;51.052;13.678;2022-08-01T14:21:57;1.53;;;1.30;;
3849;SDS011;1940;51.052;13.678;2022-08-01T14:24:23;2.60;;;1.57;;
3849;SDS011;1940;51.052;13.678;2022-08-01T14:26:49;1.60;;;1.50;;
3849;SDS011;1940;51.052;13.678;2022-08-01T14:29:14;1.93;;;1.40;;
3849;SDS011;1940;51.052;13.678;2022-08-01T14:31:40;2.63;;;1.87;;
3849;SDS011;1940;51.052;13.678;2022-08-01T14:34:06;3.37;;;3.07;;
3849;SDS011;1940;51.052;13.678;2022-08-01T14:36:32;8.23;;;5.60;;
3849;SDS011;1940;51.052;13.678;2022-08-01T14:38:58;9.10;;;5.63;;
3849;SDS011;1940;51.052;13.678;2022-08-01T14:41:24;7.00;;;5.30;;
3849;SDS011;1940;51.052;13.678;2022-08-01T14:43:49;3.90;;;3.40;;
3849;SDS011;1940;51.052;13.678;2022-08-01T14:46:15;3.77;;;2.00;;
3849;SDS011;1940;51.052;13.678;2022-08-01T14:48:41;2.13;;;1.93;;
3849;SDS011;1940;51.052;13.678;2022-08-01T14:51:07;4.10;;;3.10;;
3849;SDS011;1940;51.052;13.678;2022-08-01T14:53:33;2.40;;;2.03;;
3849;SDS011;1940;51.052;13.678;2022-08-01T14:56:01;1.90;;;1.70;;
3849;SDS011;1940;51.052;13.678;2022-08-01T14:58:29;1.50;;;1.40;;
3849;SDS011;1940;51.052;13.678;2022-08-01T15:00:55;1.73;;;1.40;;
3849;SDS011;1940;51.052;13.678;2022-08-01T15:03:22;4.23;;;1.50;;
3849;SDS011;1940;51.052;13.678;2022-08-01T15:05:47;2.30;;;1.30;;
3849;SDS011;1940;51.052;13.678;2022-08-01T15:08:13;3.17;;;1.40;;
3849;SDS011;1940;51.052;13.678;2022-08-01T15:10:39;1.33;;;1.23;;
3849;SDS011;1940;51.052;13.678;2022-08-01T15:13:06;1.40;;;1.30;;
3849;SDS011;1940;51.052;13.678;2022-08-01T15:15:32;1.50;;;1.40;;
3849;SDS011;1940;51.052;13.678;2022-08-01T15:17:58;1.40;;;1.30;;
3849;SDS011;1940;51.052;13.678;2022-08-01T15:20:24;1.47;;;1.37;;
3849;SDS011;1940;51.052;13.678;2022-08-01T15:22:51;1.63;;;1.17;;
3849;SDS011;1940;51.052;13.678;2022-08-01T15:25:18;1.23;;;1.13;;
3849;SDS011;1940;51.052;13.678;2022-08-01T15:27:44;1.33;;;1.20;;
3849;SDS011;1940;51.052;13.678;2022-08-01T15:30:10;1.67;;;1.20;;
3849;SDS011;1940;51.052;13.678;2022-08-01T15:32:35;2.70;;;1.20;;
3849;SDS011;1940;51.052;13.678;2022-08-01T15:35:03;1.23;;;1.13;;
3849;SDS011;1940;51.052;13.678;2022-08-01T15:37:29;1.53;;;1.43;;
3849;SDS011;1940;51.052;13.678;2022-08-01T15:39:55;1.87;;;1.67;;
3849;SDS011;1940;51.052;13.678;2022-08-01T15:42:21;3.00;;;1.47;;
3849;SDS011;1940;51.052;13.678;2022-08-01T15:44:46;1.67;;;1.30;;
3849;SDS011;1940;51.052;13.678;2022-08-01T15:47:12;2.90;;;1.20;;
3849;SDS011;1940;51.052;13.678;2022-08-01T15:49:38;1.57;;;1.20;;